Time;durP1;ratioP1;P1;durP2;ratioP2;P2;SDS_P1;SDS_P2;PMS_P1;PMS_P2;Temp;Humidity;BMP_temperature;BMP_pressure;BME280_temperature;BME280_humidity;BME280_pressure;Samples;Min_cycle;Max_cycle;Signal;HPM_P1;HPM_P2
2022/03/27 00:01:03;;;;;;;;;;;;;;;7.41;100.00;103418.69;4983127;28;19937;-70
2022/03/27 00:03:30;;;;;;;;;;;;;;;7.39;100.00;103420.41;4972046;28;20131;-70
2022/03/27 00:05:56;;;;;;;;;;;;;;;7.26;100.00;103422.06;4989698;28;19921;-73
2022/03/27 00:08:21;;;;;;;;;;;;;;;7.26;100.00;103424.69;4990118;28;20397;-73
2022/03/27 00:13:27;;;;;;;;;;;;;;;7.24;100.00;103419.44;4993203;28;19922;-72
2022/03/27 00:15:52;;;;;;;;;;;;;;;7.16;100.00;103420.22;4985872;28;19922;-72
2022/03/27 00:18:17;;;;;;;;;;;;;;;7.19;100.00;103417.66;4979521;28;20286;-73
2022/03/27 00:20:42;;;;;;;;;;;;;;;7.14;100.00;103409.78;4998260;28;19922;-72
2022/03/27 00:23:08;;;;;;;;;;;;;;;7.11;100.00;103415.81;4984128;28;19922;-72
2022/03/27 00:25:33;;;;;;;;;;;;;;;7.16;100.00;103409.78;4984667;28;20471;-72
2022/03/27 00:27:58;;;;;;;;;;;;;;;7.07;100.00;103413.16;4985636;28;19926;-73
2022/03/27 00:30:23;;;;;;;;;;;;;;;7.10;100.00;103415.81;4983305;28;19933;-71
2022/03/27 00:32:49;;;;;;;;;;;;;;;7.04;100.00;103415.78;4986645;28;19929;-72
2022/03/27 00:35:15;;;;;;;;;;;;;;;7.01;100.00;103407.91;4987729;28;19925;-71
2022/03/27 00:37:40;;;;;;;;;;;;;;;6.99;100.00;103405.28;4986848;28;19964;-71
2022/03/27 00:40:05;;;;;;;;;;;;;;;7.04;100.00;103414.03;4986585;28;20286;-72
2022/03/27 00:42:31;;;;;;;;;;;;;;;6.84;100.00;103419.03;4987040;28;20301;-72
2022/03/27 00:44:56;;;;;;;;;;;;;;;6.85;100.00;103417.31;4988356;28;19934;-71
2022/03/27 00:47:22;;;;;;;;;;;;;;;6.77;100.00;103419.84;4985395;28;19922;-73
2022/03/27 00:49:47;;;;;;;;;;;;;;;6.89;100.00;103416.50;4986913;28;19932;-72
2022/03/27 00:52:12;;;;;;;;;;;;;;;6.85;100.00;103415.56;4986318;28;20289;-72
2022/03/27 00:54:38;;;;;;;;;;;;;;;6.75;100.00;103417.22;4986587;28;19967;-72
2022/03/27 00:57:03;;;;;;;;;;;;;;;6.83;100.00;103414.69;4987581;28;19922;-73
2022/03/27 00:59:29;;;;;;;;;;;;;;;6.80;100.00;103418.13;4987502;28;20336;-72
2022/03/27 01:01:54;;;;;;;;;;;;;;;6.76;100.00;103410.25;4986118;28;19957;-73
2022/03/27 01:04:19;;;;;;;;;;;;;;;6.79;100.00;103411.16;4985323;28;19996;-70
2022/03/27 01:06:44;;;;;;;;;;;;;;;6.70;100.00;103405.84;4987563;28;19944;-72
2022/03/27 01:11:54;;;;;;;;;;;;;;;6.75;100.00;103405.88;4986433;28;19956;-72
2022/03/27 01:14:24;;;;;;;;;;;;;;;6.76;100.00;103405.03;4984705;28;19984;-73
2022/03/27 01:17:08;;;;;;;;;;;;;;;6.66;100.00;103404.06;4985579;28;20645;-73
2022/03/27 01:19:33;;;;;;;;;;;;;;;6.65;100.00;103397.09;4986093;28;19976;-71
2022/03/27 01:22:00;;;;;;;;;;;;;;;6.62;100.00;103403.13;4969824;28;19922;-73
2022/03/27 01:24:25;;;;;;;;;;;;;;;6.55;100.00;103398.69;4986193;28;20081;-73
2022/03/27 01:26:50;;;;;;;;;;;;;;;6.53;100.00;103392.56;4969021;28;19922;-73
2022/03/27 01:29:16;;;;;;;;;;;;;;;6.49;100.00;103393.44;4986349;28;19960;-72
2022/03/27 01:31:42;;;;;;;;;;;;;;;6.44;100.00;103398.59;4986767;28;19929;-71
2022/03/27 01:34:07;;;;;;;;;;;;;;;6.52;100.00;103393.44;4985842;28;19922;-71
2022/03/27 01:36:34;;;;;;;;;;;;;;;6.57;100.00;103397.00;4983315;28;20396;-72
2022/03/27 01:39:00;;;;;;;;;;;;;;;6.52;100.00;103393.44;4986041;28;19989;-71
2022/03/27 01:41:25;;;;;;;;;;;;;;;6.44;100.00;103390.75;4985833;28;20021;-73
2022/03/27 01:43:51;;;;;;;;;;;;;;;6.40;100.00;103395.91;4985112;28;20017;-72
2022/03/27 01:46:16;;;;;;;;;;;;;;;6.43;100.00;103390.72;4988170;28;19922;-71
2022/03/27 01:48:42;;;;;;;;;;;;;;;6.50;100.00;103384.72;4985910;28;19924;-70
2022/03/27 01:51:07;;;;;;;;;;;;;;;6.44;100.00;103395.09;5000813;28;19918;-71
2022/03/27 01:53:32;;;;;;;;;;;;;;;6.47;100.00;103392.53;4978215;28;20012;-72
2022/03/27 01:55:58;;;;;;;;;;;;;;;6.54;100.00;103394.34;4985481;28;19945;-71
2022/03/27 01:58:23;;;;;;;;;;;;;;;6.49;100.00;103398.66;4990666;28;20027;-71
2022/03/27 02:00:48;;;;;;;;;;;;;;;6.55;100.00;103395.22;4990271;28;19968;-73
2022/03/27 02:03:14;;;;;;;;;;;;;;;6.49;100.00;103393.44;4989842;28;19926;-71
2022/03/27 02:05:39;;;;;;;;;;;;;;;6.53;100.00;103389.09;4988780;28;19918;-71
2022/03/27 02:08:05;;;;;;;;;;;;;;;6.54;100.00;103388.25;4988217;28;20503;-73
2022/03/27 02:10:30;;;;;;;;;;;;;;;6.55;100.00;103387.41;4989439;28;20503;-72
2022/03/27 02:12:56;;;;;;;;;;;;;;;6.49;100.00;103389.06;4989148;28;19925;-72
2022/03/27 02:15:23;;;;;;;;;;;;;;;6.49;100.00;103394.28;4979343;28;20000;-72
2022/03/27 02:17:49;;;;;;;;;;;;;;;6.46;100.00;103389.00;4989116;28;19922;-73
2022/03/27 02:20:14;;;;;;;;;;;;;;;6.49;100.00;103390.81;4977902;28;19969;-72
2022/03/27 02:22:39;;;;;;;;;;;;;;;6.52;100.00;103398.66;4988070;28;20408;-73
2022/03/27 02:25:05;;;;;;;;;;;;;;;6.53;100.00;103394.31;4988904;28;19921;-72
2022/03/27 02:27:30;;;;;;;;;;;;;;;6.44;100.00;103385.53;4990078;28;19965;-72
2022/03/27 02:29:56;;;;;;;;;;;;;;;6.45;100.00;103386.41;4989163;28;20016;-73
2022/03/27 02:32:21;;;;;;;;;;;;;;;6.33;100.00;103382.78;4990028;28;19976;-71
2022/03/27 02:34:46;;;;;;;;;;;;;;;6.30;100.00;103380.13;5020158;28;19926;-72
2022/03/27 02:37:13;;;;;;;;;;;;;;;6.38;100.00;103375.00;5008499;28;19925;-72
2022/03/27 02:39:39;;;;;;;;;;;;;;;6.31;100.00;103374.03;5008556;28;19921;-71
2022/03/27 02:42:04;;;;;;;;;;;;;;;6.28;100.00;103378.34;5009121;28;20419;-71
2022/03/27 02:44:29;;;;;;;;;;;;;;;6.30;100.00;103374.91;5005974;28;19957;-72
2022/03/27 02:46:55;;;;;;;;;;;;;;;6.36;100.00;103368.88;5008030;28;19917;-71
2022/03/27 02:49:20;;;;;;;;;;;;;;;6.32;100.00;103375.81;4989487;28;19926;-71
2022/03/27 02:51:45;;;;;;;;;;;;;;;6.21;100.00;103371.31;4988986;28;19934;-71
2022/03/27 02:54:11;;;;;;;;;;;;;;;6.17;100.00;103376.50;4987919;28;20037;-71
2022/03/27 02:56:37;;;;;;;;;;;;;;;6.20;100.00;103373.03;4989031;28;20674;-71
2022/03/27 02:59:02;;;;;;;;;;;;;;;6.22;100.00;103375.69;4988237;28;19933;-72
2022/03/27 03:01:27;;;;;;;;;;;;;;;6.23;100.00;103380.06;4986886;28;20010;-70
2022/03/27 03:03:53;;;;;;;;;;;;;;;6.25;100.00;103378.31;4987810;28;20296;-72
2022/03/27 03:06:18;;;;;;;;;;;;;;;6.24;100.00;103379.16;4988225;28;19921;-72
2022/03/27 03:08:44;;;;;;;;;;;;;;;6.28;100.00;103375.75;4988411;28;19965;-72
2022/03/27 03:11:13;;;;;;;;;;;;;;;6.31;100.00;103373.19;4988040;28;19924;-71
2022/03/27 03:13:38;;;;;;;;;;;;;;;6.08;100.00;103368.56;4986390;28;19917;-72
2022/03/27 03:16:05;;;;;;;;;;;;;;;6.10;100.00;103373.78;4988379;28;20399;-71
2022/03/27 03:18:33;;;;;;;;;;;;;;;6.00;100.00;103381.50;4989707;28;20359;-72
2022/03/27 03:20:58;;;;;;;;;;;;;;;6.04;100.00;103374.56;4987893;28;19918;-71
2022/03/27 03:23:23;;;;;;;;;;;;;;;5.98;100.00;103371.88;4987796;28;19917;-70
2022/03/27 03:25:49;;;;;;;;;;;;;;;6.06;100.00;103369.41;4988256;28;19933;-70
2022/03/27 03:28:14;;;;;;;;;;;;;;;5.98;100.00;103370.13;4988440;28;20333;-72
2022/03/27 03:30:39;;;;;;;;;;;;;;;6.01;100.00;103358.88;4988805;28;19918;-71
2022/03/27 03:33:04;;;;;;;;;;;;;;;6.03;100.00;103352.84;4986318;28;20008;-71
2022/03/27 03:35:30;;;;;;;;;;;;;;;6.07;100.00;103358.06;5007772;28;19933;-72
2022/03/27 03:37:55;;;;;;;;;;;;;;;6.03;100.00;103360.66;5007103;28;20377;-71
2022/03/27 03:40:20;;;;;;;;;;;;;;;6.03;100.00;103365.88;5007706;28;19963;-72
2022/03/27 03:42:46;;;;;;;;;;;;;;;5.88;100.00;103358.69;5007794;28;19960;-72
2022/03/27 03:45:11;;;;;;;;;;;;;;;5.86;100.00;103367.34;4999648;28;20377;-73
2022/03/27 03:47:36;;;;;;;;;;;;;;;5.87;100.00;103362.16;4987625;28;19976;-72
2022/03/27 03:50:02;;;;;;;;;;;;;;;5.88;100.00;103350.88;5002592;28;19960;-70
2022/03/27 03:52:27;;;;;;;;;;;;;;;5.95;100.00;103359.66;4989172;28;19929;-70
2022/03/27 03:54:53;;;;;;;;;;;;;;;5.98;100.00;103354.47;4987256;28;20397;-71
2022/03/27 03:57:18;;;;;;;;;;;;;;;6.04;100.00;103353.69;4987757;28;19921;-71
2022/03/27 03:59:43;;;;;;;;;;;;;;;6.05;100.00;103354.59;4987411;28;19918;-72
2022/03/27 04:02:10;;;;;;;;;;;;;;;6.05;100.00;103344.16;4987180;28;19918;-72
2022/03/27 04:04:36;;;;;;;;;;;;;;;6.11;100.00;103354.66;4988189;28;19983;-70
2022/03/27 04:07:02;;;;;;;;;;;;;;;6.01;100.00;103357.16;5004443;28;20426;-70
2022/03/27 04:09:28;;;;;;;;;;;;;;;6.08;100.00;103359.81;4988731;28;19921;-71
2022/03/27 04:11:54;;;;;;;;;;;;;;;6.08;100.00;103352.00;4991751;28;20036;-72
2022/03/27 04:14:19;;;;;;;;;;;;;;;6.08;100.00;103357.22;4991165;28;20024;-72
2022/03/27 04:16:44;;;;;;;;;;;;;;;6.08;100.00;103362.44;4991272;28;19922;-72
2022/03/27 04:19:11;;;;;;;;;;;;;;;6.00;100.00;103349.31;4991420;28;19932;-72
2022/03/27 04:21:36;;;;;;;;;;;;;;;5.94;99.92;103355.28;4992221;28;20012;-71
2022/03/27 04:24:01;;;;;;;;;;;;;;;5.82;99.43;103355.13;4990575;28;20056;-72
2022/03/27 04:26:27;;;;;;;;;;;;;;;5.68;99.75;103361.00;4992176;28;19921;-71
2022/03/27 04:28:52;;;;;;;;;;;;;;;5.64;99.82;103366.16;4983058;28;20309;-70
2022/03/27 04:31:18;;;;;;;;;;;;;;;5.58;100.00;103360.00;4988124;28;20000;-72
2022/03/27 04:33:43;;;;;;;;;;;;;;;5.58;99.70;103354.78;4988280;28;19934;-71
2022/03/27 04:36:09;;;;;;;;;;;;;;;5.45;100.00;103357.19;5000607;28;19929;-70
2022/03/27 04:38:34;;;;;;;;;;;;;;;5.39;100.00;103364.06;5012020;28;19926;-71
2022/03/27 04:40:59;;;;;;;;;;;;;;;5.38;100.00;103364.03;5011314;28;19917;-70
2022/03/27 04:43:26;;;;;;;;;;;;;;;5.37;100.00;103357.94;5011069;28;20373;-71
2022/03/27 04:45:51;;;;;;;;;;;;;;;5.44;100.00;103365.84;5024254;28;20422;-70
2022/03/27 04:48:16;;;;;;;;;;;;;;;5.41;100.00;103346.69;5020499;28;20021;-71
2022/03/27 04:50:42;;;;;;;;;;;;;;;5.41;100.00;103361.47;5010657;28;19917;-72
2022/03/27 04:53:07;;;;;;;;;;;;;;;5.46;100.00;103356.31;5009433;28;19917;-71
2022/03/27 04:55:33;;;;;;;;;;;;;;;5.41;100.00;103362.34;5010109;28;19956;-72
2022/03/27 04:57:58;;;;;;;;;;;;;;;5.44;100.00;103358.03;5008208;28;19917;-71
2022/03/27 05:00:24;;;;;;;;;;;;;;;5.37;100.00;103360.56;5010856;28;19964;-71
2022/03/27 05:02:49;;;;;;;;;;;;;;;5.43;100.00;103365.00;5010870;28;19929;-70
2022/03/27 05:05:15;;;;;;;;;;;;;;;5.38;100.00;103372.75;5010625;28;19971;-71
2022/03/27 05:07:41;;;;;;;;;;;;;;;5.32;100.00;103362.19;5009343;28;19917;-72
2022/03/27 05:10:07;;;;;;;;;;;;;;;5.27;100.00;103361.25;5009767;28;19917;-72
2022/03/27 05:12:32;;;;;;;;;;;;;;;5.29;100.00;103359.56;5025295;28;19956;-72
2022/03/27 05:14:58;;;;;;;;;;;;;;;5.28;100.00;103363.03;5009540;28;19917;-71
2022/03/27 05:17:23;;;;;;;;;;;;;;;5.31;100.00;103360.44;5009050;28;19967;-71
2022/03/27 05:19:48;;;;;;;;;;;;;;;5.26;100.00;103356.91;5009796;28;20008;-71
2022/03/27 05:22:14;;;;;;;;;;;;;;;5.25;100.00;103361.22;5009338;28;20351;-71
2022/03/27 05:24:39;;;;;;;;;;;;;;;5.31;100.00;103354.34;5025741;28;20008;-70
2022/03/27 05:27:05;;;;;;;;;;;;;;;5.37;100.00;103354.44;5010014;28;19917;-70
2022/03/27 05:29:30;;;;;;;;;;;;;;;5.40;100.00;103354.50;5015041;28;20093;-71
2022/03/27 05:31:57;;;;;;;;;;;;;;;5.31;100.00;103356.97;5009126;28;19971;-71
2022/03/27 05:34:22;;;;;;;;;;;;;;;5.20;100.00;103362.00;5005683;28;20361;-71
2022/03/27 05:36:48;;;;;;;;;;;;;;;5.20;100.00;103365.50;4987954;28;19968;-70
2022/03/27 05:39:13;;;;;;;;;;;;;;;5.24;100.00;103364.66;4971516;28;19949;-71
2022/03/27 05:41:38;;;;;;;;;;;;;;;5.22;100.00;103360.28;4990828;28;19921;-72
2022/03/27 05:44:04;;;;;;;;;;;;;;;5.13;100.00;103360.16;4990026;28;20021;-71
2022/03/27 05:46:29;;;;;;;;;;;;;;;5.10;100.00;103366.19;4991111;28;19917;-71
2022/03/27 05:48:54;;;;;;;;;;;;;;;5.08;100.00;103363.53;4994266;28;19918;-71
2022/03/27 05:51:19;;;;;;;;;;;;;;;5.14;100.00;103361.91;4989415;28;19926;-71
2022/03/27 05:53:48;;;;;;;;;;;;;;;5.11;100.00;103354.91;4989829;28;19949;-71
2022/03/27 05:56:13;;;;;;;;;;;;;;;5.11;100.00;103363.59;4989621;28;19917;-72
2022/03/27 05:58:38;;;;;;;;;;;;;;;5.10;100.00;103361.84;4990997;28;19949;-72
2022/03/27 06:01:05;;;;;;;;;;;;;;;5.09;100.00;103370.50;4987757;28;19918;-70
2022/03/27 06:03:30;;;;;;;;;;;;;;;5.18;100.00;103372.41;4990685;28;19925;-72
2022/03/27 06:05:55;;;;;;;;;;;;;;;5.27;100.00;103371.69;4988765;28;19940;-72
2022/03/27 06:08:21;;;;;;;;;;;;;;;5.41;100.00;103370.16;4988940;28;19928;-72
2022/03/27 06:10:46;;;;;;;;;;;;;;;5.52;100.00;103370.34;4989781;28;19925;-72
2022/03/27 06:13:12;;;;;;;;;;;;;;;5.47;100.00;103369.38;4989244;28;20304;-71
2022/03/27 06:15:37;;;;;;;;;;;;;;;5.43;100.00;103375.41;4990161;28;19928;-72
2022/03/27 06:18:02;;;;;;;;;;;;;;;5.48;100.00;103378.97;4987992;28;19926;-71
2022/03/27 06:20:29;;;;;;;;;;;;;;;5.52;100.00;103382.47;4989279;28;20308;-71
2022/03/27 06:22:55;;;;;;;;;;;;;;;5.53;100.00;103381.63;4988661;28;19917;-71
2022/03/27 06:25:24;;;;;;;;;;;;;;;5.68;100.00;103380.97;4989176;28;19933;-71
2022/03/27 06:27:50;;;;;;;;;;;;;;;5.80;100.00;103375.09;4989482;28;19917;-71
2022/03/27 06:30:17;;;;;;;;;;;;;;;5.79;100.00;103376.81;4986520;28;19918;-72
2022/03/27 06:32:42;;;;;;;;;;;;;;;5.81;100.00;103379.47;4989433;28;19961;-71
2022/03/27 06:35:08;;;;;;;;;;;;;;;5.86;99.70;103375.16;4988513;28;19961;-70
2022/03/27 06:37:34;;;;;;;;;;;;;;;5.87;100.00;103382.13;4990321;28;19922;-71
2022/03/27 06:40:00;;;;;;;;;;;;;;;5.83;100.00;103375.13;4971049;28;19922;-72
2022/03/27 06:42:26;;;;;;;;;;;;;;;5.99;99.35;103369.28;4988686;28;19996;-72
2022/03/27 06:44:52;;;;;;;;;;;;;;;5.99;99.54;103371.91;4978865;28;19922;-71
2022/03/27 06:47:18;;;;;;;;;;;;;;;5.96;99.29;103371.81;4970862;28;20504;-74
2022/03/27 06:49:43;;;;;;;;;;;;;;;6.04;98.66;103366.75;4989069;28;19917;-71
2022/03/27 06:52:08;;;;;;;;;;;;;;;6.15;98.78;103361.69;4988441;28;19976;-72
2022/03/27 06:54:34;;;;;;;;;;;;;;;6.08;97.98;103360.72;4989054;28;20373;-72
2022/03/27 06:57:00;;;;;;;;;;;;;;;6.17;98.71;103359.97;4988713;28;20414;-71
2022/03/27 06:59:25;;;;;;;;;;;;;;;6.21;98.61;103361.75;4988569;28;19965;-72
2022/03/27 07:04:31;;;;;;;;;;;;;;;6.34;98.42;103367.97;4987705;28;19922;-72
2022/03/27 07:06:56;;;;;;;;;;;;;;;6.33;98.15;103369.72;4988077;28;20373;-72
2022/03/27 07:09:21;;;;;;;;;;;;;;;6.38;97.72;103369.78;5003036;28;19991;-72
2022/03/27 07:11:47;;;;;;;;;;;;;;;6.47;98.23;103369.88;4988833;28;20052;-71
2022/03/27 07:14:12;;;;;;;;;;;;;;;6.59;97.82;103365.66;4987921;28;20373;-71
2022/03/27 07:16:38;;;;;;;;;;;;;;;6.76;96.63;103365.81;4989719;28;20555;-72
2022/03/27 07:19:03;;;;;;;;;;;;;;;6.86;95.77;103365.06;4986928;28;20036;-72
2022/03/27 07:21:29;;;;;;;;;;;;;;;6.83;96.13;103362.44;4987069;28;19918;-70
2022/03/27 07:23:54;;;;;;;;;;;;;;;6.91;95.77;103366.00;4987969;28;19925;-72
2022/03/27 07:26:20;;;;;;;;;;;;;;;7.08;94.93;103358.31;4987087;28;19952;-72
2022/03/27 07:28:45;;;;;;;;;;;;;;;7.10;94.64;103360.91;4984114;28;20404;-73
2022/03/27 07:31:11;;;;;;;;;;;;;;;7.15;93.87;103359.25;4987905;28;19928;-72
2022/03/27 07:33:37;;;;;;;;;;;;;;;7.20;93.34;103356.66;4988001;28;20609;-73
2022/03/27 07:36:03;;;;;;;;;;;;;;;7.38;92.71;103351.56;4992195;28;19965;-72
2022/03/27 07:38:28;;;;;;;;;;;;;;;7.33;91.11;103353.25;4996262;28;20376;-73
2022/03/27 07:40:54;;;;;;;;;;;;;;;7.36;90.55;103341.97;4997453;28;20329;-72
2022/03/27 07:43:19;;;;;;;;;;;;;;;7.39;90.87;103342.84;4997240;28;19928;-73
2022/03/27 07:45:45;;;;;;;;;;;;;;;7.53;90.20;103340.31;4999818;28;19922;-70
2022/03/27 07:48:10;;;;;;;;;;;;;;;7.64;88.49;103344.75;4997014;28;19934;-72
2022/03/27 07:50:35;;;;;;;;;;;;;;;7.66;88.25;103336.03;4991544;28;20296;-72
2022/03/27 07:53:01;;;;;;;;;;;;;;;7.74;88.49;103331.75;4989769;28;19922;-71
2022/03/27 07:55:27;;;;;;;;;;;;;;;7.98;86.24;103334.47;4989440;28;19926;-73
2022/03/27 07:57:52;;;;;;;;;;;;;;;7.94;85.91;103324.88;4987645;28;19922;-72
2022/03/27 08:00:18;;;;;;;;;;;;;;;8.14;85.89;103331.06;4989831;28;19928;-71
2022/03/27 08:02:44;;;;;;;;;;;;;;;8.22;85.94;103330.19;4986855;28;20423;-72
2022/03/27 08:05:09;;;;;;;;;;;;;;;8.33;84.89;103328.47;4985012;28;19917;-71
2022/03/27 08:07:34;;;;;;;;;;;;;;;8.29;83.93;103327.59;4987009;28;20324;-70
2022/03/27 08:10:00;;;;;;;;;;;;;;;8.31;83.25;103323.25;4986748;28;20309;-73
2022/03/27 08:12:26;;;;;;;;;;;;;;;8.45;82.68;103325.91;4987315;28;20563;-71
2022/03/27 08:14:51;;;;;;;;;;;;;;;8.50;81.46;103313.69;4987755;28;20404;-72
2022/03/27 08:17:17;;;;;;;;;;;;;;;8.55;81.27;103316.31;4986857;28;19929;-72
2022/03/27 08:19:43;;;;;;;;;;;;;;;8.66;80.57;103313.75;4985708;28;19922;-72
2022/03/27 08:22:09;;;;;;;;;;;;;;;8.71;80.58;103311.13;4984268;28;20364;-73
2022/03/27 08:24:34;;;;;;;;;;;;;;;8.77;78.92;103305.88;4987429;28;19921;-72
2022/03/27 08:27:00;;;;;;;;;;;;;;;8.77;79.09;103308.50;4985471;28;20416;-73
2022/03/27 08:29:27;;;;;;;;;;;;;;;8.84;78.72;103298.88;4973432;28;19922;-73
2022/03/27 08:31:53;;;;;;;;;;;;;;;9.05;76.96;103296.25;4988757;28;19953;-71
2022/03/27 08:34:19;;;;;;;;;;;;;;;9.70;73.90;103272.50;5004110;28;19957;-71
2022/03/27 08:36:45;;;;;;;;;;;;;;;11.23;67.82;103243.41;5007198;28;19925;-72
2022/03/27 08:39:10;;;;;;;;;;;;;;;12.75;64.71;103215.84;4988049;28;20348;-71
2022/03/27 08:41:36;;;;;;;;;;;;;;;14.41;58.99;103214.16;5006947;28;19921;-72
2022/03/27 08:44:02;;;;;;;;;;;;;;;15.71;54.08;103197.38;5002467;28;19918;-73
2022/03/27 08:46:28;;;;;;;;;;;;;;;16.01;51.81;103327.28;5007714;28;19921;-71
2022/03/27 08:48:58;;;;;;;;;;;;;;;17.02;49.15;103332.94;4990798;28;19960;-74
2022/03/27 08:51:28;;;;;;;;;;;;;;;16.52;47.25;103331.91;4986660;28;19925;-74
2022/03/27 08:53:54;;;;;;;;;;;;;;;16.14;48.79;103336.59;4990590;28;19918;-72
2022/03/27 08:56:20;;;;;;;;;;;;;;;16.65;46.33;103328.81;4990448;28;26878;-73
2022/03/27 08:58:45;;;;;;;;;;;;;;;15.40;50.52;103342.19;4990667;28;19918;-72
2022/03/27 09:01:11;;;;;;;;;;;;;;;15.86;49.16;103334.78;4991634;28;19936;-72
2022/03/27 09:03:37;;;;;;;;;;;;;;;17.46;45.53;103337.63;4997412;28;20309;-71
2022/03/27 09:06:04;;;;;;;;;;;;;;;16.78;47.67;103345.25;4998366;28;19918;-71
2022/03/27 09:08:30;;;;;;;;;;;;;;;17.23;45.90;103343.75;5003296;28;19948;-74
2022/03/27 09:10:56;;;;;;;;;;;;;;;17.21;46.88;103354.44;4999904;28;19917;-70
2022/03/27 09:13:21;;;;;;;;;;;;;;;16.26;47.90;103351.25;4996888;28;19926;-71
2022/03/27 09:15:56;;;;;;;;;;;;;;;16.35;47.48;103350.13;5000225;28;20450;-73
2022/03/27 09:18:22;;;;;;;;;;;;;;;19.16;40.27;103343.44;4992361;28;20467;-72
2022/03/27 09:20:51;;;;;;;;;;;;;;;18.02;43.46;103356.91;4990533;28;20017;-71
2022/03/27 09:23:21;;;;;;;;;;;;;;;17.89;44.56;103359.09;5000238;28;19961;-72
2022/03/27 09:25:47;;;;;;;;;;;;;;;19.05;43.63;103353.69;4989504;28;20377;-72
2022/03/27 09:28:21;;;;;;;;;;;;;;;18.31;44.27;103349.56;4988771;28;19918;-74
2022/03/27 09:30:46;;;;;;;;;;;;;;;18.77;43.11;103345.03;4991612;28;19935;-74
2022/03/27 09:33:11;;;;;;;;;;;;;;;17.30;46.18;103358.56;4988754;28;19922;-72
2022/03/27 09:35:37;;;;;;;;;;;;;;;17.19;46.36;103356.28;4996458;28;20514;-71
2022/03/27 09:38:11;;;;;;;;;;;;;;;17.77;45.53;103350.66;5008517;28;19952;-71
2022/03/27 09:40:37;;;;;;;;;;;;;;;16.75;48.22;103362.16;5011462;28;19929;-68
2022/03/27 09:43:11;;;;;;;;;;;;;;;16.70;49.37;103358.75;5008662;28;19944;-72
2022/03/27 09:45:36;;;;;;;;;;;;;;;16.26;47.55;103347.75;5023351;28;20010;-72
2022/03/27 09:48:09;;;;;;;;;;;;;;;17.72;44.94;103339.34;5020002;28;19952;-68
2022/03/27 09:50:36;;;;;;;;;;;;;;;17.99;44.36;103331.25;5011322;28;20004;-70
2022/03/27 09:53:17;;;;;;;;;;;;;;;17.56;42.88;103338.16;5009361;28;20348;-70
2022/03/27 09:55:42;;;;;;;;;;;;;;;17.72;42.89;103331.38;5008871;28;19917;-69
2022/03/27 09:58:09;;;;;;;;;;;;;;;18.27;41.00;103332.84;5000133;28;19967;-75
2022/03/27 10:00:34;;;;;;;;;;;;;;;17.34;41.59;103338.06;5004857;28;19968;-73
2022/03/27 10:03:07;;;;;;;;;;;;;;;18.02;41.98;103331.16;5008256;28;19960;-74
2022/03/27 10:05:33;;;;;;;;;;;;;;;17.78;45.23;103343.56;5006548;28;19918;-74
2022/03/27 10:07:58;;;;;;;;;;;;;;;18.56;43.52;103336.13;5007879;28;19932;-73
2022/03/27 10:10:24;;;;;;;;;;;;;;;16.79;41.98;103328.41;5007358;28;19968;-74
2022/03/27 10:12:51;;;;;;;;;;;;;;;17.41;42.96;103329.84;5011823;28;19917;-78
2022/03/27 10:15:19;;;;;;;;;;;;;;;18.88;39.00;103331.25;5008368;28;19918;-73
2022/03/27 10:17:46;;;;;;;;;;;;;;;18.44;41.37;103328.63;5007201;28;20016;-73
2022/03/27 10:20:13;;;;;;;;;;;;;;;18.46;40.26;103319.69;5004034;28;19925;-73
2022/03/27 10:22:40;;;;;;;;;;;;;;;18.01;40.51;103318.78;5002731;28;19973;-72
2022/03/27 10:25:08;;;;;;;;;;;;;;;17.42;42.34;103326.22;5008562;28;19921;-73
2022/03/27 10:27:34;;;;;;;;;;;;;;;17.93;42.82;103327.00;5006433;28;20337;-73
2022/03/27 10:30:00;;;;;;;;;;;;;;;17.70;43.12;103327.88;5006933;28;19936;-75
2022/03/27 10:32:25;;;;;;;;;;;;;;;18.86;41.08;103317.13;5003769;28;20004;-73
2022/03/27 10:35:06;;;;;;;;;;;;;;;18.89;36.69;103314.34;5006072;28;19925;-73
2022/03/27 10:37:47;;;;;;;;;;;;;;;18.56;40.25;103321.97;4978821;28;19934;-75
2022/03/27 10:40:15;;;;;;;;;;;;;;;18.79;39.06;103315.66;4980151;28;20317;-74
2022/03/27 10:42:41;;;;;;;;;;;;;;;19.25;40.08;103307.50;4983245;28;19922;-73
2022/03/27 10:45:09;;;;;;;;;;;;;;;19.86;38.64;103301.22;4974521;28;19930;-73
2022/03/27 10:47:35;;;;;;;;;;;;;;;18.66;37.81;103292.22;4978818;28;19951;-75
2022/03/27 10:50:00;;;;;;;;;;;;;;;16.74;39.80;103304.66;4977465;28;19971;-72
2022/03/27 10:52:26;;;;;;;;;;;;;;;16.04;43.29;103305.97;4975831;28;20408;-75
2022/03/27 10:54:56;;;;;;;;;;;;;;;16.16;44.05;103307.38;4979019;28;20527;-73
2022/03/27 10:57:32;;;;;;;;;;;;;;;15.88;45.62;103303.78;4975574;28;20389;-73
2022/03/27 10:59:58;;;;;;;;;;;;;;;15.63;45.13;103289.50;4972296;28;19929;-75
2022/03/27 11:02:38;;;;;;;;;;;;;;;14.24;44.94;103302.69;4966496;28;19925;-73
2022/03/27 11:05:03;;;;;;;;;;;;;;;14.35;43.05;103298.00;4976468;28;20066;-74
2022/03/27 11:07:29;;;;;;;;;;;;;;;14.43;45.35;103302.28;4976710;28;20318;-72
2022/03/27 11:09:54;;;;;;;;;;;;;;;14.46;44.09;103299.53;4976063;28;20503;-75
2022/03/27 11:12:23;;;;;;;;;;;;;;;14.44;43.73;103290.78;4967324;28;19933;-75
2022/03/27 11:14:58;;;;;;;;;;;;;;;14.07;43.58;103288.06;4980171;28;19918;-77
2022/03/27 11:17:38;;;;;;;;;;;;;;;14.32;45.24;103298.09;4983586;28;19930;-74
2022/03/27 11:20:05;;;;;;;;;;;;;;;14.10;44.41;103288.91;4984514;28;20443;-74
2022/03/27 11:22:47;;;;;;;;;;;;;;;14.07;39.29;103274.88;4972597;28;19929;-73
2022/03/27 11:25:28;;;;;;;;;;;;;;;13.88;43.30;103289.38;4978595;28;19968;-74
2022/03/27 11:27:55;;;;;;;;;;;;;;;13.68;42.69;103276.59;4978670;28;19946;-74
2022/03/27 11:30:20;;;;;;;;;;;;;;;13.72;43.39;103281.78;4960049;28;20396;-76
2022/03/27 11:33:01;;;;;;;;;;;;;;;13.82;42.72;103271.00;4982724;28;20006;-74
2022/03/27 11:35:26;;;;;;;;;;;;;;;13.74;40.29;103258.84;4969123;28;19937;-73
2022/03/27 11:38:07;;;;;;;;;;;;;;;13.48;42.13;103259.38;4988909;28;19926;-76
2022/03/27 11:40:36;;;;;;;;;;;;;;;13.56;41.61;103264.50;4995438;28;19926;-76
2022/03/27 11:43:22;;;;;;;;;;;;;;;13.44;43.98;103265.63;4986594;28;20547;-75
2022/03/27 11:45:48;;;;;;;;;;;;;;;13.48;41.10;103250.56;4974228;28;20476;-74
2022/03/27 11:48:16;;;;;;;;;;;;;;;13.33;39.23;103243.78;4987758;28;19925;-77
2022/03/27 11:50:41;;;;;;;;;;;;;;;13.27;41.75;103255.34;4997293;28;19917;-74
2022/03/27 11:53:06;;;;;;;;;;;;;;;13.17;41.99;103252.03;4997723;28;19973;-76
2022/03/27 11:55:32;;;;;;;;;;;;;;;13.39;40.75;103247.22;4998299;28;19976;-74
2022/03/27 11:57:58;;;;;;;;;;;;;;;13.47;42.43;103252.34;5008874;28;19932;-74
2022/03/27 12:00:29;;;;;;;;;;;;;;;13.39;42.28;103247.22;4993879;28;19922;-74
2022/03/27 12:02:55;;;;;;;;;;;;;;;13.08;39.21;103242.50;4977103;28;19925;-75
2022/03/27 12:05:20;;;;;;;;;;;;;;;13.03;39.01;103241.72;4988379;28;19981;-74
2022/03/27 12:07:55;;;;;;;;;;;;;;;13.18;39.70;103245.81;4987135;28;20328;-74
2022/03/27 12:10:21;;;;;;;;;;;;;;;13.35;38.26;103239.38;4988405;28;19930;-74
2022/03/27 12:12:55;;;;;;;;;;;;;;;13.38;40.82;103241.94;4987728;28;20017;-75
2022/03/27 12:15:21;;;;;;;;;;;;;;;13.45;40.81;103239.16;4994845;28;20570;-77
2022/03/27 12:17:46;;;;;;;;;;;;;;;13.63;39.75;103244.09;4976412;28;20012;-74
2022/03/27 12:20:12;;;;;;;;;;;;;;;13.61;39.07;103238.84;4989003;28;19922;-73
2022/03/27 12:22:39;;;;;;;;;;;;;;;13.62;38.82;103230.03;4969271;28;20004;-73
2022/03/27 12:25:07;;;;;;;;;;;;;;;13.58;38.99;103231.88;4989328;28;19918;-75
2022/03/27 12:30:13;;;;;;;;;;;;;;;13.50;36.21;103222.38;5007510;28;20009;-76
2022/03/27 12:32:39;;;;;;;;;;;;;;;13.63;35.40;103221.22;4989339;28;20086;-73
2022/03/27 12:35:06;;;;;;;;;;;;;;;13.58;33.73;103215.13;4985935;28;20381;-73
2022/03/27 12:37:33;;;;;;;;;;;;;;;13.50;33.32;103217.09;4988276;28;20394;-73
2022/03/27 12:40:03;;;;;;;;;;;;;;;13.37;34.33;103213.81;4985898;28;20013;-73
2022/03/27 12:42:29;;;;;;;;;;;;;;;13.24;35.12;103213.16;4990162;28;20016;-74
2022/03/27 12:44:54;;;;;;;;;;;;;;;13.55;35.16;103212.59;4992223;28;20020;-73